Seaforth, Minnesota
Current Conditions -  °F | °C
As of 8:53 AM on Saturday 20 Dec 2014 (Local Time) from KRWF Reporting Station
Overcast Overcast  
Wind Chill: 22°   Ceiling: 1100
Heat Index: 31°   Visibility: 7mi
Dew Point: 28°   Wind: 10mph
Humidity: 89%   Direction: 180°S
Pressure: 30.1"   Gusts: NA
Location:  44.48°N, 95.33°W
Report Text: KRWF 201453Z AUTO 18009KT 7SM OVC011 M01/M02 A3010 RMK AO2 SLP205 T10061022 55002
Loading
Personal Weather Stations






























Interactive Weather Map New forecast layout! Learn more

10-Day Weather Forecast

Advertisements
Track Severe Weather on mobile